Station info - map view · info · telemetry · weather · raw · status · beacons · messages · bulletins · browse · moving · my account
Callsign, ship name or locator: Clear       
It is possible to search using wildcards (*?) after a prefix. Example: OH*
APRS station NF9H-9 - show graphs
Map loading...
Comment: 146.700MHz
Mic-E message: In service
Location: 39°59.38' N 86°01.46' W - locator EM69XX77BM - show map - static map
3.9 miles South bearing 192° from Noblesville, Hamilton County, Indiana, United States [?]
6.6 miles Southeast bearing 124° from Westfield, Hamilton County, Indiana, United States
16.8 miles Northeast bearing 25° from Indianapolis, Marion County, Indiana, United States
62.9 miles Northeast bearing 25° from Bloomington, Monroe County, Indiana, United States
Last position: 2018-12-13 21:42:50 EST (1d 6h26m ago)
2018-12-13 21:42:50 EST local time at Noblesville, United States [?]
Altitude: 797 ft
Course: 202°
Speed: 18 MPH
Device: Kenwood: TM-D710 (rig)
Last path: NF9H-9>S9UY3X via W9ICE-10*,WIDE1*,KA8ZGE-10*,CHLSEA*,WIDE2*,qAR,KB8JIU (good)
Positions stored: 95000
Packet rate: 74 seconds between packets on average during 2084 seconds.
Other SSIDs: NF9H-13
Stations near current position of NF9H-9 - show more
callsign distance last heard - EST      callsign distance last heard - EST
WB9YCZ0.7 miles 186°2018-12-14 15:27:27 WB9YCZ-50.7 miles 186°2018-12-13 22:49:40
EW50410.7 miles 149°2018-12-15 04:08:19 W9MDO-11.6 miles 25°2018-12-15 04:00:58
927.0875-1.8 miles 20°2018-12-15 03:51:39 K3HTK-91.8 miles 20°2018-11-25 15:57:03
444.4125+1.9 miles 19°2018-12-15 03:50:31 K3HTK-131.9 miles 20°2018-12-15 04:01:13
K3HTK-11.9 miles 20°2018-12-15 03:51:09 443.625+1.9 miles 19°2018-12-15 04:05:15
KB9RZ2.4 miles 165°2018-12-09 14:26:57 N9WQO-92.5 miles 43°2018-11-25 18:48:32
AC9RX-53.5 miles 229°2018-12-10 17:13:06 W9CYU-93.8 miles 95°2018-12-13 22:35:51
NF9K-93.8 miles 347°2018-12-13 15:01:55 NF9K-133.9 miles 347°2018-12-15 04:00:17
NF9K B3.9 miles 347°2018-12-15 04:00:09 NF9K-B3.9 miles 347°2018-12-15 04:00:19
NF9K-23.9 miles 347°2018-12-12 21:29:25 EW42524.1 miles 133°2018-12-15 04:07:05
Stations which heard NF9H-9 directly on radio –
callsign pkts first heard - EST last heard longest (tx => rx) longest at - EST
KB9PFM-10 1 2018-12-06 22:49:18 2018-12-06 22:49:18 EN60TE > EN60WF 10.5 miles 78° 2018-12-06 22:49:18
NS9RC 5 2018-12-06 10:06:18 2018-12-06 19:34:25 EN62BD > EN62CC 5.6 miles 132° 2018-12-06 19:32:49
N9AMN-2 5 2018-12-13 17:49:47 2018-12-13 21:15:16 EM69XT > EM69WR 7.9 miles 224° 2018-12-13 17:49:47
AB9FX 5 2018-12-06 19:41:38 2018-12-06 19:50:52 EN61AV > EN61BX 6.2 miles 38° 2018-12-06 19:50:52
WR9A-1 5 2018-12-06 07:27:41 2018-12-06 22:08:36 EN60NM > EN60NJ 9.3 miles 173° 2018-12-06 21:56:22
N9GKE-1 2 2018-12-06 07:29:48 2018-12-06 21:58:03 EN60NM > EN60OK 4.1 miles 141° 2018-12-06 21:58:03
N9AMN-3 36 2018-12-04 13:27:05 2018-12-13 21:36:14 EN60SA > EM69XV 23.5 miles 111° 2018-12-06 07:03:07
K9QV-1 15 2018-12-05 19:08:40 2018-12-13 17:34:30 EM69XW > EN60VD 17.0 miles 319° 2018-12-13 17:34:30
W9AZ-1 1 2018-12-06 08:14:37 2018-12-06 08:14:37 EN61IC > EN61BC 32.7 miles 274° 2018-12-06 08:14:37
W9AZ-2 39 2018-12-06 08:10:37 2018-12-06 21:25:10 EN61IA > EN61DK 38.3 miles 322° 2018-12-06 08:10:37
W9ICE-10 100 2018-12-04 13:25:25 2018-12-13 21:42:50 EN60RE > EM69VV 28.1 miles 137° 2018-12-06 07:13:23
N9GPY-1 1 2018-12-06 08:20:36 2018-12-06 08:20:36 EN61IE > EN61SF 44.5 miles 88° 2018-12-06 08:20:36
KC9VIX 3 2018-12-06 09:38:41 2018-12-06 20:04:05 EN61CR > EN61AT 8.8 miles 298° 2018-12-06 20:04:05
N9ZE-10 10 2018-12-06 09:48:00 2018-12-06 20:00:26 EN62BA > EN61AV 10.6 miles 197° 2018-12-06 19:40:34
K9ZLQ-3 9 2018-12-06 08:22:13 2018-12-06 21:35:15 EN60JU > EN61SF 44.8 miles 54° 2018-12-06 21:35:15
KD9AKR-10 7 2018-12-06 06:33:09 2018-12-13 21:39:20 EN60SB > EN60WD 18.9 miles 69° 2018-12-06 07:05:22
W9YB-1 32 2018-12-06 07:17:22 2018-12-06 22:26:17 EN60KR > EN60NK 23.7 miles 156° 2018-12-06 07:53:22
N0LSR-1 13 2018-12-06 10:04:15 2018-12-06 19:38:34 EN62BA > EN62BC 5.1 miles 344° 2018-12-06 10:04:15
N9ETH 1 2018-12-06 10:16:49 2018-12-06 10:16:49 EN62BD > EN52WG 15.9 miles 307° 2018-12-06 10:16:49
K9ABR-10 2 2018-12-06 09:57:44 2018-12-06 19:32:18 EN62BD > EN52WA 15.6 miles 239° 2018-12-06 19:32:18
WB9EOC-10 6 2018-12-06 06:55:48 2018-12-13 21:22:51 EM69XT > EM69NP 46.4 miles 256° 2018-12-13 21:22:51
K3HTK-1 7 2018-12-06 06:31:38 2018-12-08 14:36:57 EN60XA > EN60XA 3.1 miles 76° 2018-12-08 14:36:57
W9SMJ-1 1 2018-12-06 22:43:38 2018-12-06 22:43:38 EN60TF > EN60XJ 20.2 miles 55° 2018-12-06 22:43:38
KC0AHK-1 10 2018-12-06 09:15:57 2018-12-06 20:14:28 EN61BS > EN61DR 9.7 miles 118° 2018-12-06 09:40:55
WA9SGF-2 1 2018-12-06 20:03:07 2018-12-06 20:03:07 EN61BR > EN61BT 5.5 miles 357° 2018-12-06 20:03:07
KD9IAQ-1 15 2018-12-06 08:33:36 2018-12-06 21:13:12 EN61IF > EN61IK 15.2 miles 354° 2018-12-06 21:13:12
KD9BBB-1 2 2018-12-06 10:17:22 2018-12-06 19:33:50 EN62BD > EN62BD 1.4 miles 60° 2018-12-06 19:33:50
KC9URP-10 11 2018-12-04 13:33:59 2018-12-13 21:31:58 EN60XA > EM79BT 16.2 miles 149° 2018-12-08 13:38:06

Only position packets which were originated by the station are shown here. The range statistics show some extra long hops, because some digipeaters do not correctly add themselves to the digipeater path. Please check the raw packets.
About this site
This page shows real-time information collected from the Automatic Position Reporting System Internet network (APRS-IS). APRS is used by amateur (ham) radio operators to transmit real-time position information, weather data, telemetry and messages over the radio. A vehicle equipped with a GPS receiver, a VHF transmitter or HF transceiver and a small computer device called a tracker transmits it's location, speed and course in a small data packet, which is then received by a nearby iGate receiving site which forwards the packet on the Internet. Systems connected to the Internet can send information on the APRS-IS without a radio transmitter, or collect and display information transmitted anywhere in the world.
FAQ · Blog · Discussion group · Linking to aprs.fi · AIS sites · Service status · Database statistics · Advertising on aprs.fi · Technical details · API · Change log · Planned changes · Credits and thanks · Terms Of Service · iPhone/iPad APRS